sensor_id;sensor_type;location;lat;lon;timestamp;P1;durP1;ratioP1;P2;durP2;ratioP2
10005;SDS011;5042;42.626;23.382;2023-09-30T00:00:00;8.77;;;6.95;;
10005;SDS011;5042;42.626;23.382;2023-09-30T00:02:27;7.82;;;6.95;;
10005;SDS011;5042;42.626;23.382;2023-09-30T00:04:56;9.07;;;6.72;;
10005;SDS011;5042;42.626;23.382;2023-09-30T00:07:23;7.65;;;6.22;;
10005;SDS011;5042;42.626;23.382;2023-09-30T00:09:52;8.48;;;5.97;;
10005;SDS011;5042;42.626;23.382;2023-09-30T00:12:18;8.10;;;5.78;;
10005;SDS011;5042;42.626;23.382;2023-09-30T00:14:45;9.57;;;6.28;;
10005;SDS011;5042;42.626;23.382;2023-09-30T00:17:13;7.30;;;6.18;;
10005;SDS011;5042;42.626;23.382;2023-09-30T00:19:39;6.57;;;5.97;;
10005;SDS011;5042;42.626;23.382;2023-09-30T00:22:08;8.18;;;6.30;;
10005;SDS011;5042;42.626;23.382;2023-09-30T00:24:34;9.32;;;5.88;;
10005;SDS011;5042;42.626;23.382;2023-09-30T00:27:01;9.80;;;6.43;;
10005;SDS011;5042;42.626;23.382;2023-09-30T00:29:28;7.40;;;6.03;;
10005;SDS011;5042;42.626;23.382;2023-09-30T00:31:55;8.48;;;6.60;;
10005;SDS011;5042;42.626;23.382;2023-09-30T00:34:21;6.82;;;6.13;;
10005;SDS011;5042;42.626;23.382;2023-09-30T00:36:48;6.53;;;5.90;;
10005;SDS011;5042;42.626;23.382;2023-09-30T00:39:16;7.05;;;5.40;;
10005;SDS011;5042;42.626;23.382;2023-09-30T00:41:43;7.82;;;6.50;;
10005;SDS011;5042;42.626;23.382;2023-09-30T00:44:10;6.90;;;6.03;;
10005;SDS011;5042;42.626;23.382;2023-09-30T00:46:37;7.70;;;5.95;;
10005;SDS011;5042;42.626;23.382;2023-09-30T00:49:06;7.43;;;6.00;;
10005;SDS011;5042;42.626;23.382;2023-09-30T00:51:35;7.97;;;6.05;;
10005;SDS011;5042;42.626;23.382;2023-09-30T00:54:03;7.05;;;5.90;;
10005;SDS011;5042;42.626;23.382;2023-09-30T00:56:32;9.00;;;6.10;;
10005;SDS011;5042;42.626;23.382;2023-09-30T00:59:00;8.40;;;6.27;;
10005;SDS011;5042;42.626;23.382;2023-09-30T01:01:28;7.82;;;6.60;;
10005;SDS011;5042;42.626;23.382;2023-09-30T01:03:55;8.40;;;6.70;;
10005;SDS011;5042;42.626;23.382;2023-09-30T01:06:23;7.60;;;6.05;;
10005;SDS011;5042;42.626;23.382;2023-09-30T01:08:50;6.85;;;5.75;;
10005;SDS011;5042;42.626;23.382;2023-09-30T01:11:17;7.63;;;6.80;;
10005;SDS011;5042;42.626;23.382;2023-09-30T01:13:45;9.00;;;6.57;;
10005;SDS011;5042;42.626;23.382;2023-09-30T01:16:12;7.82;;;6.72;;
10005;SDS011;5042;42.626;23.382;2023-09-30T01:18:40;8.90;;;6.95;;
10005;SDS011;5042;42.626;23.382;2023-09-30T01:21:08;10.63;;;6.50;;
10005;SDS011;5042;42.626;23.382;2023-09-30T01:23:37;8.75;;;6.20;;
10005;SDS011;5042;42.626;23.382;2023-09-30T01:26:04;6.88;;;6.05;;
10005;SDS011;5042;42.626;23.382;2023-09-30T01:28:32;9.35;;;6.55;;
10005;SDS011;5042;42.626;23.382;2023-09-30T01:30:59;8.35;;;6.57;;
10005;SDS011;5042;42.626;23.382;2023-09-30T01:33:25;8.90;;;6.70;;
10005;SDS011;5042;42.626;23.382;2023-09-30T01:35:53;7.90;;;6.13;;
10005;SDS011;5042;42.626;23.382;2023-09-30T01:38:20;6.88;;;5.93;;
10005;SDS011;5042;42.626;23.382;2023-09-30T01:40:48;9.90;;;6.43;;
10005;SDS011;5042;42.626;23.382;2023-09-30T01:43:15;8.10;;;6.03;;
10005;SDS011;5042;42.626;23.382;2023-09-30T01:45:42;6.63;;;5.90;;
10005;SDS011;5042;42.626;23.382;2023-09-30T01:48:09;7.25;;;6.40;;
10005;SDS011;5042;42.626;23.382;2023-09-30T01:50:37;6.45;;;5.78;;
10005;SDS011;5042;42.626;23.382;2023-09-30T01:53:04;7.47;;;6.55;;
10005;SDS011;5042;42.626;23.382;2023-09-30T01:55:31;7.05;;;6.45;;
10005;SDS011;5042;42.626;23.382;2023-09-30T01:57:59;7.10;;;6.00;;
10005;SDS011;5042;42.626;23.382;2023-09-30T02:00:26;10.32;;;7.63;;
10005;SDS011;5042;42.626;23.382;2023-09-30T02:02:53;8.02;;;6.45;;
10005;SDS011;5042;42.626;23.382;2023-09-30T02:05:20;10.25;;;6.25;;
10005;SDS011;5042;42.626;23.382;2023-09-30T02:07:47;8.50;;;6.25;;
10005;SDS011;5042;42.626;23.382;2023-09-30T02:10:14;9.00;;;5.95;;
10005;SDS011;5042;42.626;23.382;2023-09-30T02:12:42;8.52;;;6.43;;
10005;SDS011;5042;42.626;23.382;2023-09-30T02:15:10;14.52;;;6.82;;
10005;SDS011;5042;42.626;23.382;2023-09-30T02:17:38;7.78;;;5.90;;
10005;SDS011;5042;42.626;23.382;2023-09-30T02:20:05;7.13;;;6.10;;
10005;SDS011;5042;42.626;23.382;2023-09-30T02:22:37;9.75;;;6.47;;
10005;SDS011;5042;42.626;23.382;2023-09-30T02:25:04;7.38;;;6.28;;
10005;SDS011;5042;42.626;23.382;2023-09-30T02:27:32;7.13;;;6.22;;
10005;SDS011;5042;42.626;23.382;2023-09-30T02:29:59;9.13;;;6.28;;
10005;SDS011;5042;42.626;23.382;2023-09-30T02:32:27;10.90;;;6.40;;
10005;SDS011;5042;42.626;23.382;2023-09-30T02:34:54;7.30;;;5.78;;
10005;SDS011;5042;42.626;23.382;2023-09-30T02:37:21;9.23;;;6.68;;
10005;SDS011;5042;42.626;23.382;2023-09-30T02:39:48;9.82;;;7.28;;
10005;SDS011;5042;42.626;23.382;2023-09-30T02:42:14;7.68;;;6.10;;
10005;SDS011;5042;42.626;23.382;2023-09-30T02:44:41;7.28;;;6.15;;
10005;SDS011;5042;42.626;23.382;2023-09-30T02:47:08;7.07;;;6.38;;
10005;SDS011;5042;42.626;23.382;2023-09-30T02:49:37;8.13;;;6.45;;
10005;SDS011;5042;42.626;23.382;2023-09-30T02:52:04;7.13;;;6.07;;
10005;SDS011;5042;42.626;23.382;2023-09-30T02:54:30;9.80;;;6.30;;
10005;SDS011;5042;42.626;23.382;2023-09-30T02:56:57;12.65;;;5.93;;
10005;SDS011;5042;42.626;23.382;2023-09-30T02:59:24;6.35;;;5.75;;
10005;SDS011;5042;42.626;23.382;2023-09-30T03:01:52;8.38;;;6.55;;
10005;SDS011;5042;42.626;23.382;2023-09-30T03:04:19;7.70;;;6.30;;
10005;SDS011;5042;42.626;23.382;2023-09-30T03:06:47;8.95;;;6.60;;
10005;SDS011;5042;42.626;23.382;2023-09-30T03:09:14;8.07;;;6.53;;
10005;SDS011;5042;42.626;23.382;2023-09-30T03:11:41;8.63;;;6.95;;
10005;SDS011;5042;42.626;23.382;2023-09-30T03:14:09;8.95;;;6.93;;
10005;SDS011;5042;42.626;23.382;2023-09-30T03:16:36;7.55;;;6.80;;
10005;SDS011;5042;42.626;23.382;2023-09-30T03:19:04;9.43;;;6.43;;
10005;SDS011;5042;42.626;23.382;2023-09-30T03:21:34;8.27;;;6.57;;
10005;SDS011;5042;42.626;23.382;2023-09-30T03:24:03;9.68;;;6.95;;
10005;SDS011;5042;42.626;23.382;2023-09-30T03:26:31;9.25;;;7.00;;
10005;SDS011;5042;42.626;23.382;2023-09-30T03:28:58;9.45;;;6.55;;
10005;SDS011;5042;42.626;23.382;2023-09-30T03:31:25;7.47;;;6.43;;
10005;SDS011;5042;42.626;23.382;2023-09-30T03:33:51;7.93;;;6.40;;
10005;SDS011;5042;42.626;23.382;2023-09-30T03:36:19;8.88;;;7.15;;
10005;SDS011;5042;42.626;23.382;2023-09-30T03:38:47;7.43;;;6.38;;
10005;SDS011;5042;42.626;23.382;2023-09-30T03:41:15;7.20;;;6.50;;
10005;SDS011;5042;42.626;23.382;2023-09-30T03:43:44;8.00;;;6.28;;
10005;SDS011;5042;42.626;23.382;2023-09-30T03:46:12;10.15;;;6.85;;
10005;SDS011;5042;42.626;23.382;2023-09-30T03:48:39;10.10;;;6.40;;
10005;SDS011;5042;42.626;23.382;2023-09-30T03:51:07;9.15;;;6.60;;
10005;SDS011;5042;42.626;23.382;2023-09-30T03:53:35;8.05;;;7.25;;
10005;SDS011;5042;42.626;23.382;2023-09-30T03:56:02;9.60;;;6.70;;
10005;SDS011;5042;42.626;23.382;2023-09-30T03:58:30;10.93;;;6.78;;
10005;SDS011;5042;42.626;23.382;2023-09-30T04:00:57;9.13;;;6.90;;
10005;SDS011;5042;42.626;23.382;2023-09-30T04:03:25;7.68;;;6.88;;
10005;SDS011;5042;42.626;23.382;2023-09-30T04:05:52;8.13;;;6.38;;
10005;SDS011;5042;42.626;23.382;2023-09-30T04:08:19;8.52;;;6.45;;
10005;SDS011;5042;42.626;23.382;2023-09-30T04:10:47;7.33;;;6.63;;
10005;SDS011;5042;42.626;23.382;2023-09-30T04:13:14;10.48;;;7.10;;
10005;SDS011;5042;42.626;23.382;2023-09-30T04:15:43;9.07;;;7.00;;
10005;SDS011;5042;42.626;23.382;2023-09-30T04:18:11;7.30;;;6.60;;
10005;SDS011;5042;42.626;23.382;2023-09-30T04:20:38;8.60;;;7.40;;
10005;SDS011;5042;42.626;23.382;2023-09-30T04:23:05;7.97;;;7.00;;
10005;SDS011;5042;42.626;23.382;2023-09-30T04:25:35;9.73;;;7.33;;
10005;SDS011;5042;42.626;23.382;2023-09-30T04:28:02;10.50;;;7.33;;
10005;SDS011;5042;42.626;23.382;2023-09-30T04:30:29;8.00;;;7.20;;
10005;SDS011;5042;42.626;23.382;2023-09-30T04:32:59;11.00;;;7.60;;
10005;SDS011;5042;42.626;23.382;2023-09-30T04:35:26;9.43;;;8.00;;
10005;SDS011;5042;42.626;23.382;2023-09-30T04:37:55;8.10;;;7.23;;
10005;SDS011;5042;42.626;23.382;2023-09-30T04:40:22;9.50;;;7.73;;
10005;SDS011;5042;42.626;23.382;2023-09-30T04:42:51;9.03;;;7.03;;
10005;SDS011;5042;42.626;23.382;2023-09-30T04:45:19;10.40;;;7.67;;
10005;SDS011;5042;42.626;23.382;2023-09-30T04:47:46;10.63;;;7.47;;
10005;SDS011;5042;42.626;23.382;2023-09-30T04:50:15;9.97;;;7.63;;
10005;SDS011;5042;42.626;23.382;2023-09-30T04:52:42;8.67;;;7.20;;
10005;SDS011;5042;42.626;23.382;2023-09-30T04:55:10;8.70;;;7.47;;
10005;SDS011;5042;42.626;23.382;2023-09-30T04:57:41;7.87;;;7.07;;
10005;SDS011;5042;42.626;23.382;2023-09-30T05:00:10;8.77;;;7.10;;
10005;SDS011;5042;42.626;23.382;2023-09-30T05:02:38;11.03;;;7.57;;
10005;SDS011;5042;42.626;23.382;2023-09-30T05:05:05;12.33;;;8.00;;
10005;SDS011;5042;42.626;23.382;2023-09-30T05:07:34;9.63;;;7.70;;
10005;SDS011;5042;42.626;23.382;2023-09-30T05:10:01;15.23;;;7.70;;
10005;SDS011;5042;42.626;23.382;2023-09-30T05:12:30;12.33;;;8.23;;
10005;SDS011;5042;42.626;23.382;2023-09-30T05:14:58;9.10;;;7.90;;
10005;SDS011;5042;42.626;23.382;2023-09-30T05:17:25;10.10;;;7.13;;
10005;SDS011;5042;42.626;23.382;2023-09-30T05:19:53;11.73;;;7.63;;
10005;SDS011;5042;42.626;23.382;2023-09-30T05:22:20;10.40;;;7.28;;
10005;SDS011;5042;42.626;23.382;2023-09-30T05:24:50;12.03;;;7.87;;
10005;SDS011;5042;42.626;23.382;2023-09-30T05:27:17;12.27;;;7.90;;
10005;SDS011;5042;42.626;23.382;2023-09-30T05:29:43;11.33;;;7.93;;
10005;SDS011;5042;42.626;23.382;2023-09-30T05:32:10;11.77;;;7.67;;
10005;SDS011;5042;42.626;23.382;2023-09-30T05:34:37;10.75;;;8.05;;
10005;SDS011;5042;42.626;23.382;2023-09-30T05:37:04;12.55;;;8.07;;
10005;SDS011;5042;42.626;23.382;2023-09-30T05:39:31;13.30;;;7.88;;
10005;SDS011;5042;42.626;23.382;2023-09-30T05:41:59;14.35;;;8.20;;
10005;SDS011;5042;42.626;23.382;2023-09-30T05:44:25;15.27;;;7.60;;
10005;SDS011;5042;42.626;23.382;2023-09-30T05:46:53;9.73;;;6.93;;
10005;SDS011;5042;42.626;23.382;2023-09-30T05:49:20;9.80;;;7.32;;
10005;SDS011;5042;42.626;23.382;2023-09-30T05:51:48;9.07;;;7.28;;
10005;SDS011;5042;42.626;23.382;2023-09-30T05:54:16;13.23;;;7.85;;
10005;SDS011;5042;42.626;23.382;2023-09-30T05:56:43;10.32;;;7.95;;
10005;SDS011;5042;42.626;23.382;2023-09-30T05:59:11;10.63;;;8.43;;
10005;SDS011;5042;42.626;23.382;2023-09-30T06:01:38;13.40;;;7.97;;
10005;SDS011;5042;42.626;23.382;2023-09-30T06:04:07;9.48;;;7.28;;
10005;SDS011;5042;42.626;23.382;2023-09-30T06:06:34;12.63;;;7.53;;
10005;SDS011;5042;42.626;23.382;2023-09-30T06:09:01;11.15;;;7.93;;
10005;SDS011;5042;42.626;23.382;2023-09-30T06:11:27;14.50;;;10.13;;
10005;SDS011;5042;42.626;23.382;2023-09-30T06:13:54;10.65;;;9.60;;
10005;SDS011;5042;42.626;23.382;2023-09-30T06:16:25;15.10;;;9.68;;
10005;SDS011;5042;42.626;23.382;2023-09-30T06:18:52;15.43;;;9.20;;
10005;SDS011;5042;42.626;23.382;2023-09-30T06:21:19;13.85;;;9.80;;
10005;SDS011;5042;42.626;23.382;2023-09-30T06:23:46;14.77;;;10.32;;
10005;SDS011;5042;42.626;23.382;2023-09-30T06:26:13;14.52;;;9.88;;
10005;SDS011;5042;42.626;23.382;2023-09-30T06:28:40;12.38;;;8.98;;
10005;SDS011;5042;42.626;23.382;2023-09-30T06:31:07;10.75;;;8.68;;
10005;SDS011;5042;42.626;23.382;2023-09-30T06:33:36;14.02;;;8.75;;
10005;SDS011;5042;42.626;23.382;2023-09-30T06:36:07;10.63;;;7.75;;
10005;SDS011;5042;42.626;23.382;2023-09-30T06:38:34;14.98;;;8.10;;
10005;SDS011;5042;42.626;23.382;2023-09-30T06:41:02;17.05;;;7.85;;
10005;SDS011;5042;42.626;23.382;2023-09-30T06:43:30;9.05;;;7.10;;
10005;SDS011;5042;42.626;23.382;2023-09-30T06:45:57;10.02;;;6.60;;
10005;SDS011;5042;42.626;23.382;2023-09-30T06:48:24;11.90;;;6.53;;
10005;SDS011;5042;42.626;23.382;2023-09-30T06:50:52;8.45;;;6.75;;
10005;SDS011;5042;42.626;23.382;2023-09-30T06:53:19;11.05;;;6.57;;
10005;SDS011;5042;42.626;23.382;2023-09-30T06:55:48;9.20;;;6.50;;
10005;SDS011;5042;42.626;23.382;2023-09-30T06:58:16;7.45;;;5.93;;
10005;SDS011;5042;42.626;23.382;2023-09-30T07:00:46;8.20;;;6.47;;
10005;SDS011;5042;42.626;23.382;2023-09-30T07:03:14;8.63;;;6.60;;
10005;SDS011;5042;42.626;23.382;2023-09-30T07:05:40;8.05;;;7.18;;
10005;SDS011;5042;42.626;23.382;2023-09-30T07:08:09;11.90;;;7.20;;
10005;SDS011;5042;42.626;23.382;2023-09-30T07:10:35;8.32;;;6.93;;
10005;SDS011;5042;42.626;23.382;2023-09-30T07:13:03;9.52;;;7.72;;
10005;SDS011;5042;42.626;23.382;2023-09-30T07:15:30;9.60;;;7.10;;
10005;SDS011;5042;42.626;23.382;2023-09-30T07:17:56;11.45;;;7.88;;
10005;SDS011;5042;42.626;23.382;2023-09-30T07:20:23;9.10;;;7.32;;
10005;SDS011;5042;42.626;23.382;2023-09-30T07:22:50;9.05;;;7.13;;
10005;SDS011;5042;42.626;23.382;2023-09-30T07:25:19;10.93;;;6.85;;
10005;SDS011;5042;42.626;23.382;2023-09-30T07:27:45;10.82;;;8.73;;
10005;SDS011;5042;42.626;23.382;2023-09-30T07:30:13;9.88;;;8.77;;
10005;SDS011;5042;42.626;23.382;2023-09-30T07:32:41;9.57;;;6.22;;
10005;SDS011;5042;42.626;23.382;2023-09-30T07:35:07;10.52;;;9.32;;
10005;SDS011;5042;42.626;23.382;2023-09-30T07:37:35;12.00;;;8.38;;
10005;SDS011;5042;42.626;23.382;2023-09-30T07:40:01;8.25;;;5.78;;
10005;SDS011;5042;42.626;23.382;2023-09-30T07:42:31;10.48;;;7.60;;
10005;SDS011;5042;42.626;23.382;2023-09-30T07:44:58;11.93;;;6.80;;
10005;SDS011;5042;42.626;23.382;2023-09-30T07:47:25;8.85;;;6.75;;
10005;SDS011;5042;42.626;23.382;2023-09-30T07:49:52;15.48;;;6.95;;
10005;SDS011;5042;42.626;23.382;2023-09-30T07:52:18;6.85;;;5.90;;
10005;SDS011;5042;42.626;23.382;2023-09-30T07:54:45;8.40;;;5.93;;
10005;SDS011;5042;42.626;23.382;2023-09-30T07:57:12;6.68;;;5.72;;
10005;SDS011;5042;42.626;23.382;2023-09-30T07:59:40;6.28;;;5.43;;
10005;SDS011;5042;42.626;23.382;2023-09-30T08:02:07;7.40;;;5.60;;
10005;SDS011;5042;42.626;23.382;2023-09-30T08:04:33;10.75;;;5.90;;
10005;SDS011;5042;42.626;23.382;2023-09-30T08:07:00;6.78;;;4.85;;
10005;SDS011;5042;42.626;23.382;2023-09-30T08:09:27;6.05;;;4.75;;
10005;SDS011;5042;42.626;23.382;2023-09-30T08:11:54;7.07;;;5.53;;
10005;SDS011;5042;42.626;23.382;2023-09-30T08:14:21;9.00;;;5.18;;
10005;SDS011;5042;42.626;23.382;2023-09-30T08:16:49;10.50;;;5.57;;
10005;SDS011;5042;42.626;23.382;2023-09-30T08:19:16;9.57;;;6.00;;
10005;SDS011;5042;42.626;23.382;2023-09-30T08:21:45;9.50;;;6.22;;
10005;SDS011;5042;42.626;23.382;2023-09-30T08:24:12;6.82;;;5.97;;
10005;SDS011;5042;42.626;23.382;2023-09-30T08:26:39;8.38;;;5.88;;
10005;SDS011;5042;42.626;23.382;2023-09-30T08:29:06;6.32;;;5.45;;
10005;SDS011;5042;42.626;23.382;2023-09-30T08:31:33;10.20;;;6.55;;
10005;SDS011;5042;42.626;23.382;2023-09-30T08:34:01;8.02;;;6.13;;
10005;SDS011;5042;42.626;23.382;2023-09-30T08:36:29;8.65;;;6.15;;
10005;SDS011;5042;42.626;23.382;2023-09-30T08:38:56;10.13;;;5.78;;
10005;SDS011;5042;42.626;23.382;2023-09-30T08:41:24;8.38;;;6.47;;
10005;SDS011;5042;42.626;23.382;2023-09-30T08:43:58;11.27;;;6.32;;
10005;SDS011;5042;42.626;23.382;2023-09-30T08:46:27;9.43;;;6.90;;
10005;SDS011;5042;42.626;23.382;2023-09-30T08:48:57;8.32;;;6.82;;
10005;SDS011;5042;42.626;23.382;2023-09-30T08:51:25;13.75;;;7.47;;
10005;SDS011;5042;42.626;23.382;2023-09-30T08:53:52;7.65;;;7.03;;
10005;SDS011;5042;42.626;23.382;2023-09-30T08:56:22;9.65;;;8.10;;
10005;SDS011;5042;42.626;23.382;2023-09-30T08:58:56;9.38;;;7.72;;
10005;SDS011;5042;42.626;23.382;2023-09-30T09:01:24;7.85;;;7.13;;
10005;SDS011;5042;42.626;23.382;2023-09-30T09:03:51;14.90;;;7.18;;
10005;SDS011;5042;42.626;23.382;2023-09-30T09:06:18;9.50;;;7.60;;
10005;SDS011;5042;42.626;23.382;2023-09-30T09:08:47;11.13;;;7.47;;
10005;SDS011;5042;42.626;23.382;2023-09-30T09:11:14;18.60;;;12.13;;
10005;SDS011;5042;42.626;23.382;2023-09-30T09:13:47;9.00;;;7.97;;
10005;SDS011;5042;42.626;23.382;2023-09-30T09:16:16;13.45;;;7.68;;
10005;SDS011;5042;42.626;23.382;2023-09-30T09:18:44;9.60;;;7.93;;
10005;SDS011;5042;42.626;23.382;2023-09-30T09:21:13;10.63;;;8.63;;
10005;SDS011;5042;42.626;23.382;2023-09-30T09:23:44;14.90;;;9.40;;
10005;SDS011;5042;42.626;23.382;2023-09-30T09:26:22;10.07;;;8.02;;
10005;SDS011;5042;42.626;23.382;2023-09-30T09:28:51;16.15;;;8.82;;
10005;SDS011;5042;42.626;23.382;2023-09-30T09:31:23;12.15;;;9.50;;
10005;SDS011;5042;42.626;23.382;2023-09-30T09:33:51;8.57;;;7.50;;
10005;SDS011;5042;42.626;23.382;2023-09-30T09:36:18;10.75;;;7.78;;
10005;SDS011;5042;42.626;23.382;2023-09-30T09:38:46;9.50;;;7.60;;
10005;SDS011;5042;42.626;23.382;2023-09-30T09:41:16;11.55;;;7.72;;
10005;SDS011;5042;42.626;23.382;2023-09-30T09:43:43;9.02;;;6.93;;
10005;SDS011;5042;42.626;23.382;2023-09-30T09:46:10;8.20;;;7.38;;
10005;SDS011;5042;42.626;23.382;2023-09-30T09:48:39;9.65;;;6.85;;
10005;SDS011;5042;42.626;23.382;2023-09-30T09:51:06;12.02;;;8.13;;
10005;SDS011;5042;42.626;23.382;2023-09-30T09:53:35;8.65;;;7.10;;
10005;SDS011;5042;42.626;23.382;2023-09-30T09:56:03;9.75;;;6.70;;
10005;SDS011;5042;42.626;23.382;2023-09-30T09:58:33;10.25;;;6.70;;
10005;SDS011;5042;42.626;23.382;2023-09-30T10:01:02;11.75;;;7.07;;
10005;SDS011;5042;42.626;23.382;2023-09-30T10:03:30;7.07;;;5.65;;
10005;SDS011;5042;42.626;23.382;2023-09-30T10:05:58;9.93;;;6.82;;
10005;SDS011;5042;42.626;23.382;2023-09-30T10:08:29;10.18;;;7.10;;
10005;SDS011;5042;42.626;23.382;2023-09-30T10:10:59;6.80;;;6.05;;
10005;SDS011;5042;42.626;23.382;2023-09-30T10:19:15;8.95;;;6.10;;
10005;SDS011;5042;42.626;23.382;2023-09-30T10:24:51;9.63;;;6.35;;
10005;SDS011;5042;42.626;23.382;2023-09-30T10:27:29;10.02;;;7.78;;
10005;SDS011;5042;42.626;23.382;2023-09-30T10:30:06;7.47;;;5.88;;
10005;SDS011;5042;42.626;23.382;2023-09-30T10:35:42;7.43;;;5.45;;
10005;SDS011;5042;42.626;23.382;2023-09-30T10:41:06;7.07;;;4.85;;
10005;SDS011;5042;42.626;23.382;2023-09-30T10:43:34;5.97;;;5.25;;
10005;SDS011;5042;42.626;23.382;2023-09-30T10:46:03;6.65;;;5.22;;
10005;SDS011;5042;42.626;23.382;2023-09-30T10:48:33;7.70;;;4.85;;
10005;SDS011;5042;42.626;23.382;2023-09-30T10:51:13;5.20;;;4.70;;
10005;SDS011;5042;42.626;23.382;2023-09-30T10:53:41;11.77;;;5.18;;
10005;SDS011;5042;42.626;23.382;2023-09-30T10:56:10;5.28;;;4.30;;
10005;SDS011;5042;42.626;23.382;2023-09-30T10:58:41;7.60;;;3.90;;
10005;SDS011;5042;42.626;23.382;2023-09-30T11:01:10;3.80;;;3.45;;
10005;SDS011;5042;42.626;23.382;2023-09-30T11:03:38;4.13;;;3.72;;
10005;SDS011;5042;42.626;23.382;2023-09-30T11:06:05;6.82;;;4.03;;
10005;SDS011;5042;42.626;23.382;2023-09-30T11:08:32;4.63;;;3.53;;
10005;SDS011;5042;42.626;23.382;2023-09-30T11:11:00;5.85;;;4.35;;
10005;SDS011;5042;42.626;23.382;2023-09-30T11:13:31;8.75;;;4.20;;
10005;SDS011;5042;42.626;23.382;2023-09-30T11:16:00;6.65;;;4.03;;
10005;SDS011;5042;42.626;23.382;2023-09-30T11:18:29;4.32;;;3.58;;
10005;SDS011;5042;42.626;23.382;2023-09-30T11:21:03;6.93;;;3.88;;
10005;SDS011;5042;42.626;23.382;2023-09-30T11:23:31;6.03;;;4.05;;
10005;SDS011;5042;42.626;23.382;2023-09-30T11:25:58;7.78;;;3.95;;
10005;SDS011;5042;42.626;23.382;2023-09-30T11:28:25;5.95;;;3.80;;
10005;SDS011;5042;42.626;23.382;2023-09-30T11:30:53;5.93;;;3.60;;
10005;SDS011;5042;42.626;23.382;2023-09-30T11:33:21;5.13;;;3.90;;
10005;SDS011;5042;42.626;23.382;2023-09-30T11:36:02;4.70;;;4.30;;
10005;SDS011;5042;42.626;23.382;2023-09-30T11:38:31;4.55;;;4.15;;
10005;SDS011;5042;42.626;23.382;2023-09-30T11:40:59;4.38;;;3.97;;
10005;SDS011;5042;42.626;23.382;2023-09-30T11:43:27;4.50;;;3.50;;
10005;SDS011;5042;42.626;23.382;2023-09-30T11:46:03;7.70;;;4.57;;
10005;SDS011;5042;42.626;23.382;2023-09-30T11:48:30;6.65;;;4.18;;
10005;SDS011;5042;42.626;23.382;2023-09-30T11:50:58;7.90;;;4.80;;
10005;SDS011;5042;42.626;23.382;2023-09-30T11:53:29;6.55;;;4.40;;
10005;SDS011;5042;42.626;23.382;2023-09-30T11:55:56;7.00;;;4.57;;
10005;SDS011;5042;42.626;23.382;2023-09-30T11:58:25;5.15;;;4.72;;
10005;SDS011;5042;42.626;23.382;2023-09-30T12:00:53;4.90;;;4.20;;
10005;SDS011;5042;42.626;23.382;2023-09-30T12:03:20;7.63;;;4.78;;
10005;SDS011;5042;42.626;23.382;2023-09-30T12:05:47;6.43;;;4.55;;
10005;SDS011;5042;42.626;23.382;2023-09-30T12:08:14;5.85;;;5.28;;
10005;SDS011;5042;42.626;23.382;2023-09-30T12:10:42;5.32;;;4.82;;
10005;SDS011;5042;42.626;23.382;2023-09-30T12:13:09;5.35;;;4.80;;
10005;SDS011;5042;42.626;23.382;2023-09-30T12:15:37;5.10;;;4.60;;
10005;SDS011;5042;42.626;23.382;2023-09-30T12:18:04;6.75;;;4.93;;
10005;SDS011;5042;42.626;23.382;2023-09-30T12:20:31;5.65;;;4.90;;
10005;SDS011;5042;42.626;23.382;2023-09-30T12:22:58;5.38;;;4.90;;
10005;SDS011;5042;42.626;23.382;2023-09-30T12:25:25;6.95;;;4.80;;
10005;SDS011;5042;42.626;23.382;2023-09-30T12:27:54;7.65;;;6.88;;
10005;SDS011;5042;42.626;23.382;2023-09-30T12:30:21;5.82;;;5.13;;
10005;SDS011;5042;42.626;23.382;2023-09-30T12:32:48;7.22;;;5.07;;
10005;SDS011;5042;42.626;23.382;2023-09-30T12:35:14;7.00;;;6.38;;
10005;SDS011;5042;42.626;23.382;2023-09-30T12:37:41;7.28;;;5.68;;
10005;SDS011;5042;42.626;23.382;2023-09-30T12:40:10;6.88;;;5.50;;
10005;SDS011;5042;42.626;23.382;2023-09-30T12:42:41;8.93;;;6.57;;
10005;SDS011;5042;42.626;23.382;2023-09-30T12:45:10;6.63;;;6.00;;
10005;SDS011;5042;42.626;23.382;2023-09-30T12:47:38;7.72;;;6.20;;
10005;SDS011;5042;42.626;23.382;2023-09-30T12:50:05;6.13;;;5.50;;
10005;SDS011;5042;42.626;23.382;2023-09-30T12:52:34;10.10;;;6.68;;
10005;SDS011;5042;42.626;23.382;2023-09-30T12:55:00;10.50;;;6.43;;
10005;SDS011;5042;42.626;23.382;2023-09-30T12:57:27;7.82;;;5.95;;
10005;SDS011;5042;42.626;23.382;2023-09-30T12:59:54;5.10;;;4.70;;
10005;SDS011;5042;42.626;23.382;2023-09-30T13:02:22;5.60;;;5.10;;
10005;SDS011;5042;42.626;23.382;2023-09-30T13:04:48;8.35;;;5.38;;
10005;SDS011;5042;42.626;23.382;2023-09-30T13:07:15;6.38;;;5.18;;
10005;SDS011;5042;42.626;23.382;2023-09-30T13:09:42;5.68;;;5.10;;
10005;SDS011;5042;42.626;23.382;2023-09-30T13:12:09;5.47;;;4.65;;
10005;SDS011;5042;42.626;23.382;2023-09-30T13:14:36;6.13;;;4.90;;
10005;SDS011;5042;42.626;23.382;2023-09-30T13:17:03;7.15;;;5.05;;
10005;SDS011;5042;42.626;23.382;2023-09-30T13:19:31;8.00;;;5.10;;
10005;SDS011;5042;42.626;23.382;2023-09-30T13:21:59;8.27;;;5.53;;
10005;SDS011;5042;42.626;23.382;2023-09-30T13:24:25;6.88;;;5.20;;
10005;SDS011;5042;42.626;23.382;2023-09-30T13:26:53;7.35;;;5.30;;
10005;SDS011;5042;42.626;23.382;2023-09-30T13:29:19;4.43;;;4.03;;
10005;SDS011;5042;42.626;23.382;2023-09-30T13:31:46;5.82;;;5.15;;
10005;SDS011;5042;42.626;23.382;2023-09-30T13:34:12;5.50;;;4.97;;
10005;SDS011;5042;42.626;23.382;2023-09-30T13:36:41;5.57;;;4.72;;
10005;SDS011;5042;42.626;23.382;2023-09-30T13:39:07;8.15;;;4.72;;
10005;SDS011;5042;42.626;23.382;2023-09-30T13:41:38;5.65;;;5.05;;
10005;SDS011;5042;42.626;23.382;2023-09-30T13:44:05;6.60;;;4.97;;
10005;SDS011;5042;42.626;23.382;2023-09-30T13:46:32;7.80;;;4.90;;
10005;SDS011;5042;42.626;23.382;2023-09-30T13:48:59;6.57;;;5.90;;
10005;SDS011;5042;42.626;23.382;2023-09-30T13:51:25;6.22;;;5.18;;
10005;SDS011;5042;42.626;23.382;2023-09-30T13:53:53;5.40;;;4.90;;
10005;SDS011;5042;42.626;23.382;2023-09-30T13:56:20;7.03;;;6.32;;
10005;SDS011;5042;42.626;23.382;2023-09-30T13:58:47;11.05;;;7.68;;
10005;SDS011;5042;42.626;23.382;2023-09-30T14:01:14;11.82;;;5.60;;
10005;SDS011;5042;42.626;23.382;2023-09-30T14:03:40;6.32;;;5.65;;
10005;SDS011;5042;42.626;23.382;2023-09-30T14:06:11;11.75;;;6.68;;
10005;SDS011;5042;42.626;23.382;2023-09-30T14:08:38;6.57;;;5.97;;
10005;SDS011;5042;42.626;23.382;2023-09-30T14:11:06;8.00;;;5.97;;
10005;SDS011;5042;42.626;23.382;2023-09-30T14:13:33;7.78;;;6.95;;
10005;SDS011;5042;42.626;23.382;2023-09-30T14:16:00;7.80;;;5.70;;
10005;SDS011;5042;42.626;23.382;2023-09-30T14:18:27;6.95;;;5.53;;
10005;SDS011;5042;42.626;23.382;2023-09-30T14:20:54;6.97;;;5.70;;
10005;SDS011;5042;42.626;23.382;2023-09-30T14:23:21;6.22;;;5.10;;
10005;SDS011;5042;42.626;23.382;2023-09-30T14:25:48;7.45;;;6.20;;
10005;SDS011;5042;42.626;23.382;2023-09-30T14:28:16;7.50;;;6.30;;
10005;SDS011;5042;42.626;23.382;2023-09-30T14:30:43;7.78;;;6.35;;
10005;SDS011;5042;42.626;23.382;2023-09-30T14:33:10;7.80;;;5.90;;
10005;SDS011;5042;42.626;23.382;2023-09-30T14:35:37;5.40;;;4.88;;
10005;SDS011;5042;42.626;23.382;2023-09-30T14:38:04;9.27;;;6.05;;
10005;SDS011;5042;42.626;23.382;2023-09-30T14:40:35;5.25;;;4.75;;
10005;SDS011;5042;42.626;23.382;2023-09-30T14:43:04;8.23;;;6.55;;
10005;SDS011;5042;42.626;23.382;2023-09-30T14:45:36;5.53;;;5.07;;
10005;SDS011;5042;42.626;23.382;2023-09-30T14:48:04;6.32;;;5.07;;
10005;SDS011;5042;42.626;23.382;2023-09-30T14:50:31;8.00;;;5.20;;
10005;SDS011;5042;42.626;23.382;2023-09-30T14:52:58;6.50;;;4.85;;
10005;SDS011;5042;42.626;23.382;2023-09-30T14:55:24;6.00;;;4.70;;
10005;SDS011;5042;42.626;23.382;2023-09-30T14:57:51;6.00;;;4.65;;
10005;SDS011;5042;42.626;23.382;2023-09-30T15:00:19;10.75;;;4.53;;